Poyntelle, Pennsylvania
Current Conditions -  °F | °C
As of 2:15 PM on Friday 24 Oct 2014 (Local Time) from KMSV Reporting Station
Overcast Overcast  
Wind Chill: 57°   Ceiling: 3900
Heat Index: 57°   Visibility: 10mi
Dew Point: 43°   Wind: 15mph
Humidity: 59%   Direction: 340°NNW
Pressure: 29.81"   Gusts: 26mph
Location:  41.82°N, 75.42°W
Report Text: KMSV 241815Z AUTO 34013G23KT 10SM BKN039 OVC046 14/06 A2981 RMK AO1
Loading
Personal Weather Stations






























Interactive Weather Map
Tropical Storm Tracking
New forecast layout! Learn more

10-Day Weather Forecast

Advertisements
Track Severe Weather on mobile